createdAt,value
2017-11-18T00:01:52.057Z,6.40
2017-11-18T00:04:20.068Z,6.40
2017-11-18T00:06:47.580Z,6.40
2017-11-18T00:09:15.122Z,6.40
2017-11-18T00:11:42.613Z,6.40
2017-11-18T00:14:10.209Z,6.40
2017-11-18T00:16:37.696Z,6.40
2017-11-18T00:19:05.609Z,6.40
2017-11-18T00:21:33.198Z,6.40
2017-11-18T00:24:00.710Z,6.30
2017-11-18T00:26:28.671Z,6.40
2017-11-18T00:28:56.178Z,6.40
2017-11-18T00:31:23.727Z,6.40
2017-11-18T00:33:51.225Z,6.30
2017-11-18T00:36:19.493Z,6.30
2017-11-18T00:38:47.925Z,6.30
2017-11-18T00:41:15.421Z,6.30
2017-11-18T00:43:42.918Z,6.30
2017-11-18T00:46:10.487Z,6.30
2017-11-18T00:48:37.994Z,6.30
2017-11-18T00:51:05.513Z,6.40
2017-11-18T00:53:33.725Z,6.40
2017-11-18T00:56:01.233Z,6.40
2017-11-18T00:58:28.724Z,6.30
2017-11-18T01:00:56.244Z,6.30
2017-11-18T01:03:23.946Z,6.40
2017-11-18T01:05:51.451Z,6.50
2017-11-18T01:08:18.947Z,6.50
2017-11-18T01:10:46.625Z,6.50
2017-11-18T01:13:14.126Z,6.50
2017-11-18T01:15:41.837Z,6.50
2017-11-18T01:18:09.338Z,6.40
2017-11-18T01:20:36.866Z,6.30
2017-11-18T01:23:04.370Z,6.40
2017-11-18T01:25:31.965Z,6.30
2017-11-18T01:27:59.733Z,6.30
2017-11-18T01:30:27.241Z,6.20
2017-11-18T01:32:54.752Z,6.20
2017-11-18T01:35:22.413Z,6.30
2017-11-18T01:37:49.909Z,6.20
2017-11-18T01:40:17.429Z,6.20
2017-11-18T01:42:44.925Z,6.10
2017-11-18T01:45:13.193Z,6.20
2017-11-18T01:47:40.796Z,6.20
2017-11-18T01:50:08.358Z,6.10
2017-11-18T01:52:35.864Z,6.10
2017-11-18T01:55:03.349Z,6.10
2017-11-18T01:57:30.862Z,6.00
2017-11-18T01:59:58.505Z,6.00
2017-11-18T02:02:37.951Z,6.00
2017-11-18T02:05:05.564Z,5.90
2017-11-18T02:07:33.176Z,5.90
2017-11-18T02:10:00.665Z,5.90
2017-11-18T02:12:28.197Z,5.90
2017-11-18T02:14:55.700Z,6.00
2017-11-18T02:17:23.209Z,5.90
2017-11-18T02:19:50.722Z,6.00
2017-11-18T02:22:18.233Z,6.00
2017-11-18T02:24:45.827Z,5.90
2017-11-18T02:27:14.353Z,5.90
2017-11-18T02:29:41.855Z,5.90
2017-11-18T02:32:10.233Z,5.90
2017-11-18T02:34:37.748Z,5.80
2017-11-18T02:37:05.257Z,6.00
2017-11-18T02:39:33.793Z,6.00
2017-11-18T02:42:01.293Z,5.90
2017-11-18T02:44:28.795Z,6.00
2017-11-18T02:46:56.466Z,6.00
2017-11-18T02:49:23.969Z,6.00
2017-11-18T02:51:51.478Z,6.00
2017-11-18T02:54:18.977Z,6.00
2017-11-18T02:56:47.248Z,6.00
2017-11-18T02:59:14.990Z,6.00
2017-11-18T03:01:42.490Z,6.00
2017-11-18T03:04:10.013Z,6.00
2017-11-18T03:06:37.609Z,6.00
2017-11-18T03:09:05.417Z,6.00
2017-11-18T03:11:32.913Z,6.00
2017-11-18T03:14:00.622Z,6.00
2017-11-18T03:16:28.400Z,6.00
2017-11-18T03:18:55.908Z,6.00
2017-11-18T03:21:23.617Z,6.10
2017-11-18T03:23:51.117Z,6.10
2017-11-18T03:26:18.613Z,6.10
2017-11-18T03:28:46.141Z,6.00
2017-11-18T03:31:14.402Z,6.10
2017-11-18T03:33:42.125Z,6.00
2017-11-18T03:36:09.642Z,6.10
2017-11-18T03:38:37.264Z,6.10
2017-11-18T03:41:05.013Z,6.10
2017-11-18T03:43:32.528Z,6.10
2017-11-18T03:46:00.027Z,6.10
2017-11-18T03:48:27.802Z,6.20
2017-11-18T03:50:55.543Z,6.20
2017-11-18T03:53:23.044Z,6.20
2017-11-18T03:55:50.555Z,6.20
2017-11-18T03:58:18.042Z,6.20
2017-11-18T04:00:51.325Z,6.20
2017-11-18T04:03:18.835Z,6.20
2017-11-18T04:05:47.089Z,6.10
2017-11-18T04:08:14.600Z,6.10
2017-11-18T04:10:42.265Z,6.20
2017-11-18T04:13:09.852Z,6.10
2017-11-18T04:15:37.491Z,6.10
2017-11-18T04:18:05.257Z,6.10
2017-11-18T04:20:32.775Z,6.10
2017-11-18T04:23:00.269Z,6.00
2017-11-18T04:25:27.929Z,6.00
2017-11-18T04:27:55.421Z,6.00
2017-11-18T04:30:22.925Z,6.00
2017-11-18T04:32:50.601Z,6.00
2017-11-18T04:35:19.070Z,6.00
2017-11-18T04:37:46.558Z,6.00
2017-11-18T04:40:14.066Z,6.00
2017-11-18T04:42:41.557Z,6.00
2017-11-18T04:45:09.117Z,6.00
2017-11-18T04:47:37.224Z,5.90
2017-11-18T04:50:04.954Z,6.00
2017-11-18T04:52:32.459Z,6.00
2017-11-18T04:54:59.958Z,6.00
2017-11-18T04:57:27.603Z,6.00
2017-11-18T04:59:55.091Z,6.00
2017-11-18T05:02:22.602Z,6.00
2017-11-18T05:04:50.464Z,6.00
2017-11-18T05:07:18.064Z,6.00
2017-11-18T05:09:45.829Z,6.00
2017-11-18T05:12:13.589Z,6.00
2017-11-18T05:14:41.190Z,6.00
2017-11-18T05:17:09.456Z,6.00
2017-11-18T05:19:37.373Z,6.00
2017-11-18T05:22:04.869Z,6.00
2017-11-18T05:24:32.412Z,6.00
2017-11-18T05:26:59.915Z,6.00
2017-11-18T05:29:27.413Z,6.00
2017-11-18T05:31:54.905Z,6.00
2017-11-18T05:34:22.418Z,6.00
2017-11-18T05:36:49.917Z,6.00
2017-11-18T05:39:17.552Z,5.90
2017-11-18T05:41:45.181Z,6.00
2017-11-18T05:44:13.417Z,6.00
2017-11-18T05:46:41.058Z,6.00
2017-11-18T05:49:08.817Z,5.90
2017-11-18T05:51:37.130Z,5.90
2017-11-18T05:54:04.641Z,5.90
2017-11-18T05:56:32.174Z,5.90
2017-11-18T05:58:59.681Z,5.90
2017-11-18T06:01:27.324Z,5.80
2017-11-18T06:03:54.829Z,5.80
2017-11-18T06:06:22.549Z,5.90
2017-11-18T06:08:50.049Z,5.80
2017-11-18T06:11:17.550Z,5.70
2017-11-18T06:13:45.228Z,5.70
2017-11-18T06:16:12.724Z,5.70
2017-11-18T06:18:40.645Z,5.70
2017-11-18T06:21:08.142Z,5.70
2017-11-18T06:23:35.654Z,5.60
2017-11-18T06:26:03.149Z,5.60
2017-11-18T06:28:31.269Z,5.60
2017-11-18T06:30:59.034Z,5.50
2017-11-18T06:33:26.519Z,5.50
2017-11-18T06:35:54.154Z,5.50
2017-11-18T06:38:21.938Z,5.50
2017-11-18T06:40:49.446Z,5.50
2017-11-18T06:43:16.946Z,5.50
2017-11-18T06:45:44.457Z,5.60
2017-11-18T06:48:12.712Z,5.50
2017-11-18T06:50:40.240Z,5.50
2017-11-18T06:53:07.728Z,5.50
2017-11-18T06:55:35.357Z,5.50
2017-11-18T06:58:02.861Z,5.50
2017-11-18T07:00:30.361Z,5.50
2017-11-18T07:02:58.001Z,5.50
2017-11-18T07:05:25.800Z,5.50
2017-11-18T07:07:53.306Z,5.50
2017-11-18T07:10:20.801Z,5.50
2017-11-18T07:12:48.476Z,5.50
2017-11-18T07:15:16.040Z,5.50
2017-11-18T07:17:43.852Z,5.50
2017-11-18T07:20:12.109Z,5.60
2017-11-18T07:22:39.608Z,5.50
2017-11-18T07:25:07.195Z,5.60
2017-11-18T07:27:34.685Z,5.50
2017-11-18T07:30:02.220Z,5.60
2017-11-18T07:32:30.525Z,5.60
2017-11-18T07:34:58.021Z,5.70
2017-11-18T07:37:25.989Z,5.70
2017-11-18T07:39:53.572Z,5.70
2017-11-18T07:42:21.075Z,5.70
2017-11-18T07:44:48.577Z,5.80
2017-11-18T07:47:16.092Z,5.80
2017-11-18T07:49:44.361Z,5.90
2017-11-18T07:52:12.050Z,5.80
2017-11-18T07:54:39.753Z,5.90
2017-11-18T07:57:07.257Z,5.90
2017-11-18T07:59:34.757Z,6.00
2017-11-18T08:02:02.274Z,5.90
2017-11-18T08:04:29.766Z,6.00
2017-11-18T08:06:57.401Z,6.00
2017-11-18T08:09:25.198Z,6.00
2017-11-18T08:11:53.500Z,6.10
2017-11-18T08:14:21.214Z,6.10
2017-11-18T08:16:48.789Z,6.20
2017-11-18T08:19:16.294Z,6.20
2017-11-18T08:21:43.829Z,6.30
2017-11-18T08:24:11.317Z,6.40
2017-11-18T08:26:39.844Z,6.40
2017-11-18T08:29:07.353Z,6.40
2017-11-18T08:31:35.030Z,6.40
2017-11-18T08:34:02.537Z,6.40
2017-11-18T08:36:36.660Z,6.50
2017-11-18T08:39:06.961Z,6.50
2017-11-18T08:41:34.486Z,6.50
2017-11-18T08:44:02.176Z,6.50
2017-11-18T08:46:29.673Z,6.60
2017-11-18T08:48:57.402Z,6.60
2017-11-18T08:51:25.103Z,6.60
2017-11-18T08:53:52.617Z,6.60
2017-11-18T08:56:20.109Z,6.60
2017-11-18T08:58:47.629Z,6.70
2017-11-18T09:01:15.122Z,6.70
2017-11-18T09:03:42.643Z,6.70
2017-11-18T09:06:10.213Z,6.70
2017-11-18T09:08:38.628Z,6.70
2017-11-18T09:11:06.260Z,6.70
2017-11-18T09:13:33.800Z,6.70
2017-11-18T09:16:01.289Z,6.70
2017-11-18T09:18:28.801Z,6.70
2017-11-18T09:20:56.302Z,6.70
2017-11-18T09:23:24.705Z,6.70
2017-11-18T09:25:53.177Z,6.80
2017-11-18T09:28:20.679Z,6.70
2017-11-18T09:30:48.181Z,6.80
2017-11-18T09:33:15.936Z,6.80
2017-11-18T09:35:43.441Z,6.70
2017-11-18T09:38:11.111Z,6.80
2017-11-18T09:40:38.607Z,6.80
2017-11-18T09:43:06.101Z,6.70
2017-11-18T09:45:33.816Z,6.70
2017-11-18T09:48:01.310Z,6.60
2017-11-18T09:50:29.953Z,6.50
2017-11-18T09:52:57.714Z,6.40
2017-11-18T09:55:25.213Z,6.40
2017-11-18T09:57:52.939Z,6.40
2017-11-18T10:00:20.445Z,6.40
2017-11-18T10:02:47.947Z,6.50
2017-11-18T10:05:15.449Z,6.50
2017-11-18T10:07:43.705Z,6.70
2017-11-18T10:10:11.216Z,6.60
2017-11-18T10:12:38.728Z,6.70
2017-11-18T10:15:06.330Z,6.70
2017-11-18T10:17:34.133Z,6.90
2017-11-18T10:20:01.898Z,7.00
2017-11-18T10:22:29.381Z,6.90
2017-11-18T10:24:57.100Z,6.90
2017-11-18T10:27:24.593Z,6.90
2017-11-18T10:29:52.334Z,6.90
2017-11-18T10:32:20.089Z,6.90
2017-11-18T10:34:47.588Z,6.90
2017-11-18T10:37:15.321Z,6.80
2017-11-18T10:39:43.079Z,6.70
2017-11-18T10:42:10.571Z,6.70
2017-11-18T10:44:38.298Z,6.60
2017-11-18T10:47:06.074Z,6.50
2017-11-18T10:49:33.573Z,6.50
2017-11-18T10:52:01.074Z,6.50
2017-11-18T10:54:28.573Z,6.40
2017-11-18T10:56:56.843Z,6.30
2017-11-18T10:59:24.345Z,6.30
2017-11-18T11:01:52.026Z,6.20
2017-11-18T11:04:19.525Z,6.20
2017-11-18T11:06:47.215Z,6.20
2017-11-18T11:09:15.010Z,6.10
2017-11-18T11:11:42.769Z,6.10
2017-11-18T11:14:10.266Z,6.00
2017-11-18T11:16:37.776Z,6.00
2017-11-18T11:19:05.410Z,5.90
2017-11-18T11:21:33.142Z,5.80
2017-11-18T11:24:00.671Z,5.60
2017-11-18T11:26:28.174Z,5.30
2017-11-18T11:28:55.675Z,5.10
2017-11-18T11:31:24.054Z,4.90
2017-11-18T11:33:51.553Z,4.90
2017-11-18T11:36:19.065Z,4.80
2017-11-18T11:38:46.597Z,4.60
2017-11-18T11:41:14.102Z,4.50
2017-11-18T11:43:41.818Z,4.50
2017-11-18T11:46:09.316Z,4.40
2017-11-18T11:48:36.816Z,4.40
2017-11-18T11:51:04.316Z,4.40
2017-11-18T11:53:31.830Z,4.40
2017-11-18T11:56:00.089Z,4.40
2017-11-18T11:58:27.590Z,4.40
2017-11-18T12:00:55.282Z,4.40
2017-11-18T12:03:22.784Z,4.50
2017-11-18T12:05:50.277Z,4.50
2017-11-18T12:08:17.772Z,4.50
2017-11-18T12:10:45.373Z,4.50
2017-11-18T12:13:12.877Z,4.40
2017-11-18T12:15:40.377Z,4.50
2017-11-18T12:18:07.882Z,4.50
2017-11-18T12:20:35.384Z,4.50
2017-11-18T12:23:03.928Z,4.40
2017-11-18T12:25:31.417Z,4.30
2017-11-18T12:27:58.922Z,4.30
2017-11-18T12:30:26.421Z,4.30
2017-11-18T12:32:53.921Z,4.30
2017-11-18T12:35:21.421Z,4.40
2017-11-18T12:37:48.965Z,4.40
2017-11-18T12:40:16.487Z,4.40
2017-11-18T12:42:44.184Z,4.40
2017-11-18T12:45:11.750Z,4.40
2017-11-18T12:47:39.413Z,4.50
2017-11-18T12:50:07.635Z,4.50
2017-11-18T12:52:36.165Z,4.50
2017-11-18T12:55:03.929Z,4.50
2017-11-18T12:57:31.426Z,4.60
2017-11-18T12:59:59.129Z,4.70
2017-11-18T13:02:26.913Z,4.70
2017-11-18T13:04:54.428Z,4.60
2017-11-18T13:07:22.108Z,4.60
2017-11-18T13:09:50.425Z,4.60
2017-11-18T13:12:17.935Z,4.60
2017-11-18T13:14:45.421Z,4.60
2017-11-18T13:17:12.926Z,4.50
2017-11-18T13:19:41.186Z,4.50
2017-11-18T13:22:10.253Z,4.50
2017-11-18T13:24:37.742Z,4.50
2017-11-18T13:27:05.245Z,4.50
2017-11-18T13:29:32.929Z,4.50
2017-11-18T13:32:00.441Z,4.50
2017-11-18T13:34:27.938Z,4.50
2017-11-18T13:36:55.604Z,4.60
2017-11-18T13:39:23.369Z,4.60
2017-11-18T13:41:50.869Z,4.60
2017-11-18T13:44:18.565Z,4.50
2017-11-18T13:46:46.349Z,4.60
2017-11-18T13:49:14.109Z,4.60
2017-11-18T13:51:41.613Z,4.70
2017-11-18T13:54:09.524Z,4.70
2017-11-18T13:56:37.021Z,4.70
2017-11-18T13:59:04.525Z,4.60
2017-11-18T14:01:32.045Z,4.70
2017-11-18T14:03:59.564Z,4.70
2017-11-18T14:06:27.858Z,4.70
2017-11-18T14:08:55.353Z,4.70
2017-11-18T14:11:22.845Z,4.70
2017-11-18T14:13:50.365Z,4.60
2017-11-18T14:16:18.902Z,4.70
2017-11-18T14:18:46.396Z,4.70
2017-11-18T14:21:13.895Z,4.80
2017-11-18T14:23:41.398Z,4.80
2017-11-18T14:26:08.905Z,4.90
2017-11-18T14:28:36.404Z,4.90
2017-11-18T14:31:03.950Z,5.00
2017-11-18T14:33:31.445Z,5.00
2017-11-18T14:35:59.126Z,5.10
2017-11-18T14:38:26.622Z,5.10
2017-11-18T14:40:54.301Z,5.10
2017-11-18T14:43:21.836Z,5.00
2017-11-18T14:45:49.334Z,5.00
2017-11-18T14:48:17.053Z,5.00
2017-11-18T14:50:44.825Z,5.00
2017-11-18T14:53:12.329Z,5.00
2017-11-18T14:55:39.825Z,4.90
2017-11-18T14:58:07.413Z,4.90
2017-11-18T15:00:34.909Z,4.80
2017-11-18T15:03:02.413Z,4.80
2017-11-18T15:05:29.908Z,4.70
2017-11-18T15:07:57.407Z,4.80
2017-11-18T15:10:24.918Z,4.80
2017-11-18T15:12:52.416Z,4.80
2017-11-18T15:15:25.742Z,4.80
2017-11-18T15:17:58.908Z,4.70
2017-11-18T15:20:43.274Z,4.70
2017-11-18T15:23:27.608Z,4.70
2017-11-18T15:26:00.858Z,4.70
2017-11-18T15:28:33.951Z,4.70
2017-11-18T15:31:18.841Z,4.80
2017-11-18T15:33:48.800Z,4.80
2017-11-18T15:36:31.181Z,4.80
2017-11-18T15:39:00.116Z,4.70
2017-11-18T15:41:28.382Z,4.80
2017-11-18T15:44:14.894Z,4.80
2017-11-18T15:47:03.244Z,4.80
2017-11-18T15:49:36.502Z,4.80
2017-11-18T15:52:18.890Z,4.70
2017-11-18T15:55:01.272Z,4.80
2017-11-18T15:57:30.355Z,4.70
2017-11-18T15:59:58.681Z,4.70
2017-11-18T16:02:29.574Z,4.70
2017-11-18T16:04:57.896Z,4.80
2017-11-18T16:07:27.217Z,4.80
2017-11-18T16:09:54.722Z,4.80
2017-11-18T16:12:22.229Z,4.80
2017-11-18T16:14:49.715Z,4.80
2017-11-18T16:17:17.237Z,4.80
2017-11-18T16:19:44.889Z,4.80
2017-11-18T16:22:12.659Z,4.80
2017-11-18T16:24:40.140Z,4.80
2017-11-18T16:27:07.641Z,4.80
2017-11-18T16:29:35.969Z,4.80
2017-11-18T16:32:03.481Z,4.80
2017-11-18T16:34:30.970Z,4.80
2017-11-18T16:36:58.478Z,4.80
2017-11-18T16:39:26.742Z,4.70
2017-11-18T16:41:54.460Z,4.70
2017-11-18T16:44:21.958Z,4.70
2017-11-18T16:46:49.462Z,4.70
2017-11-18T16:49:16.976Z,4.70
2017-11-18T16:51:45.249Z,4.60
2017-11-18T16:54:12.759Z,4.60
2017-11-18T16:56:40.263Z,4.60
2017-11-18T16:59:08.525Z,4.60
2017-11-18T17:01:36.262Z,4.60
2017-11-18T17:04:03.773Z,4.60
2017-11-18T17:06:31.265Z,4.60
2017-11-18T17:08:58.768Z,4.60
2017-11-18T17:11:27.041Z,4.60
2017-11-18T17:13:54.554Z,4.60
2017-11-18T17:16:22.047Z,4.70
2017-11-18T17:18:49.563Z,4.70
2017-11-18T17:21:17.137Z,4.70
2017-11-18T17:23:44.755Z,4.70
2017-11-18T17:26:13.022Z,4.70
2017-11-18T17:28:40.734Z,4.70
2017-11-18T17:31:08.371Z,4.70
2017-11-18T17:33:35.865Z,4.70
2017-11-18T17:36:03.426Z,4.70
2017-11-18T17:38:30.956Z,4.70
2017-11-18T17:40:58.449Z,4.60
2017-11-18T17:43:25.971Z,4.60
2017-11-18T17:45:53.547Z,4.60
2017-11-18T17:48:21.313Z,4.80
2017-11-18T17:50:48.813Z,4.70
2017-11-18T17:53:16.318Z,4.70
2017-11-18T17:55:43.996Z,4.70
2017-11-18T17:58:11.688Z,4.70
2017-11-18T18:00:39.186Z,4.70
2017-11-18T18:03:06.681Z,4.70
2017-11-18T18:05:34.388Z,4.70
2017-11-18T18:08:01.889Z,4.70
2017-11-18T18:10:29.402Z,4.70
2017-11-18T18:12:56.898Z,4.70
2017-11-18T18:15:24.481Z,4.60
2017-11-18T18:17:51.993Z,4.60
2017-11-18T18:20:19.627Z,4.60
2017-11-18T18:22:47.896Z,4.60
2017-11-18T18:25:15.617Z,4.60
2017-11-18T18:27:43.118Z,4.70
2017-11-18T18:30:10.625Z,4.60
2017-11-18T18:32:38.240Z,4.60
2017-11-18T18:35:07.045Z,4.50
2017-11-18T18:37:34.549Z,4.50
2017-11-18T18:40:02.113Z,4.60
2017-11-18T18:42:29.617Z,4.60
2017-11-18T18:44:57.414Z,4.60
2017-11-18T18:47:25.181Z,4.60
2017-11-18T18:49:52.942Z,4.60
2017-11-18T18:52:20.437Z,4.60
2017-11-18T18:54:48.166Z,4.60
2017-11-18T18:57:15.665Z,4.60
2017-11-18T18:59:43.168Z,4.60
2017-11-18T19:02:10.678Z,4.60
2017-11-18T19:04:38.958Z,4.60
2017-11-18T19:07:06.681Z,4.60
2017-11-18T19:09:34.437Z,4.60
2017-11-18T19:12:01.950Z,4.70
2017-11-18T19:14:30.274Z,4.80
2017-11-18T19:16:57.808Z,4.80
2017-11-18T19:19:25.489Z,4.80
2017-11-18T19:21:53.203Z,4.80
2017-11-18T19:24:20.691Z,4.70
2017-11-18T19:26:48.473Z,4.70
2017-11-18T19:29:15.983Z,4.60
2017-11-18T19:31:43.491Z,4.60
2017-11-18T19:34:10.993Z,4.70
2017-11-18T19:36:39.272Z,4.60
2017-11-18T19:39:06.986Z,4.60
2017-11-18T19:41:34.754Z,4.70
2017-11-18T19:44:03.369Z,4.60
2017-11-18T19:46:30.864Z,4.60
2017-11-18T19:48:58.367Z,4.50
2017-11-18T19:51:25.869Z,4.50
2017-11-18T19:53:53.569Z,4.50
2017-11-18T19:56:21.069Z,4.50
2017-11-18T19:58:48.573Z,4.50
2017-11-18T20:01:16.077Z,4.40
2017-11-18T20:03:44.350Z,4.40
2017-11-18T20:06:11.836Z,4.40
2017-11-18T20:08:39.357Z,4.40
2017-11-18T20:11:06.852Z,4.40
2017-11-18T20:13:34.454Z,4.40
2017-11-18T20:16:01.959Z,4.30
2017-11-18T20:18:29.885Z,4.30
2017-11-18T20:20:57.383Z,4.30
2017-11-18T20:23:25.213Z,4.30
2017-11-18T20:25:52.718Z,4.30
2017-11-18T20:28:20.406Z,4.30
2017-11-18T20:30:47.893Z,4.20
2017-11-18T20:33:15.631Z,4.20
2017-11-18T20:35:43.174Z,4.20
2017-11-18T20:38:11.037Z,4.20
2017-11-18T20:40:38.618Z,4.20
2017-11-18T20:43:06.129Z,4.10
2017-11-18T20:45:33.633Z,4.20
2017-11-18T20:48:01.274Z,4.20
2017-11-18T20:50:29.682Z,4.20
2017-11-18T20:52:57.176Z,4.30
2017-11-18T20:55:24.685Z,4.30
2017-11-18T20:57:52.308Z,4.20
2017-11-18T21:00:19.809Z,4.30
2017-11-18T21:02:47.318Z,4.30
2017-11-18T21:05:14.828Z,4.30
2017-11-18T21:07:42.635Z,4.30
2017-11-18T21:10:11.165Z,4.30
2017-11-18T21:12:38.663Z,4.30
2017-11-18T21:15:06.385Z,4.30
2017-11-18T21:17:33.884Z,4.40
2017-11-18T21:20:01.610Z,4.40
2017-11-18T21:22:29.136Z,4.50
2017-11-18T21:24:56.662Z,4.50
2017-11-18T21:27:24.917Z,4.50
2017-11-18T21:29:52.432Z,4.50
2017-11-18T21:32:20.089Z,4.50
2017-11-18T21:34:48.505Z,4.50
2017-11-18T21:37:16.004Z,4.30
2017-11-18T21:39:43.517Z,4.10
2017-11-18T21:42:11.022Z,4.10
2017-11-18T21:44:38.627Z,4.00
2017-11-18T21:47:06.164Z,4.10
2017-11-18T21:49:33.853Z,4.10
2017-11-18T21:52:01.354Z,4.10
2017-11-18T21:54:29.061Z,4.20
2017-11-18T21:56:56.830Z,4.20
2017-11-18T21:59:24.324Z,4.10
2017-11-18T22:01:51.829Z,4.30
2017-11-18T22:04:19.329Z,4.20
2017-11-18T22:06:46.834Z,4.10
2017-11-18T22:09:14.381Z,4.00
2017-11-18T22:11:41.899Z,4.10
2017-11-18T22:14:09.641Z,4.10
2017-11-18T22:16:37.150Z,4.10
2017-11-18T22:19:04.654Z,4.10
2017-11-18T22:21:32.150Z,4.10
2017-11-18T22:24:00.689Z,4.10
2017-11-18T22:26:28.461Z,4.10
2017-11-18T22:28:56.677Z,4.20
2017-11-18T22:31:24.933Z,4.20
2017-11-18T22:33:52.544Z,4.20
2017-11-18T22:36:20.121Z,4.20
2017-11-18T22:38:47.629Z,4.20
2017-11-18T22:41:15.349Z,4.20
2017-11-18T22:43:42.853Z,4.30
2017-11-18T22:46:10.583Z,4.30
2017-11-18T22:48:38.325Z,4.20
2017-11-18T22:51:05.820Z,4.30
2017-11-18T22:53:33.325Z,4.30
2017-11-18T22:56:00.965Z,4.30
2017-11-18T22:58:28.476Z,4.30
2017-11-18T23:00:55.968Z,4.30
2017-11-18T23:03:23.681Z,4.30
2017-11-18T23:05:51.177Z,4.30
2017-11-18T23:08:18.685Z,4.30
2017-11-18T23:10:46.305Z,4.30
2017-11-18T23:13:13.815Z,4.30
2017-11-18T23:15:41.509Z,4.30
2017-11-18T23:18:09.024Z,4.30
2017-11-18T23:20:36.535Z,4.30
2017-11-18T23:23:04.045Z,4.30
2017-11-18T23:25:31.547Z,4.30
2017-11-18T23:27:59.165Z,4.20
2017-11-18T23:30:26.932Z,4.20
2017-11-18T23:32:54.694Z,4.20
2017-11-18T23:35:23.281Z,4.20
2017-11-18T23:37:50.777Z,4.20
2017-11-18T23:40:18.297Z,4.20
2017-11-18T23:42:45.801Z,4.30
2017-11-18T23:45:13.509Z,4.20
2017-11-18T23:47:41.278Z,4.20
2017-11-18T23:50:08.965Z,4.10
2017-11-18T23:52:37.016Z,4.10
2017-11-18T23:55:04.519Z,4.10
2017-11-18T23:57:32.021Z,4.10
2017-11-18T23:59:59.527Z,4.10
